San Cosme, Argentina
Current Conditions -  °F | °C
As of 11:00 AM on Sunday 21 Dec 2014 (Local Time) from SARC Reporting Station
Thunderstorm Thunderstorm  
Wind Chill: 72°   Ceiling: 4500
Heat Index: 72°   Visibility: 4mi
Dew Point: 68°   Wind: 2mph
Humidity: 88%   Direction: 90°E
Pressure: 29.65"   Gusts: NA
Location:  27.37°S, 58.52°W
Report Text: SARC 211400Z 09002KT 6000 -TSRA FEW008 OVC045 FEW050CB 22/20 Q1004
Loading
Personal Weather Stations






























Interactive Weather Map New forecast layout! Learn more

10-Day Weather Forecast

Advertisements
Track Severe Weather on mobile